Time;durP1;ratioP1;P1;durP2;ratioP2;P2;SDS_P1;SDS_P2;PMS_P1;PMS_P2;Temp;Humidity;BMP_temperature;BMP_pressure;BME280_temperature;BME280_humidity;BME280_pressure;Samples;Min_cycle;Max_cycle;Signal;HPM_P1;HPM_P2
2022/03/27 00:02:11;;;;;;;9.43;6.95;;;;;;;9.10;74.23;103103.84;5032281;28;20112;-84
2022/03/27 00:04:37;;;;;;;11.65;7.32;;;;;;;9.07;75.12;103103.00;5032477;28;20052;-84
2022/03/27 00:07:03;;;;;;;13.43;6.43;;;;;;;9.05;75.30;103101.34;5041229;28;20030;-85
2022/03/27 00:09:28;;;;;;;9.75;6.63;;;;;;;9.08;75.64;103110.03;5022792;28;20037;-86
2022/03/27 00:11:53;;;;;;;11.05;7.07;;;;;;;9.00;75.73;103092.66;5020780;28;20026;-86
2022/03/27 00:14:19;;;;;;;9.13;6.68;;;;;;;9.04;76.39;103108.44;5015894;28;20037;-85
2022/03/27 00:16:44;;;;;;;12.07;6.45;;;;;;;9.02;75.33;103110.25;5012391;28;20026;-84
2022/03/27 00:19:09;;;;;;;10.13;6.20;;;;;;;9.01;76.05;103107.63;5022930;28;20063;-86
2022/03/27 00:21:38;;;;;;;9.82;7.45;;;;;;;9.02;76.13;103112.88;5032055;28;20156;-85
2022/03/27 00:24:04;;;;;;;13.45;6.60;;;;;;;8.92;76.25;103103.53;5032413;28;20063;-83
2022/03/27 00:26:29;;;;;;;8.95;6.22;;;;;;;8.89;76.59;103101.84;5013711;28;20566;-86
2022/03/27 00:28:57;;;;;;;11.10;6.38;;;;;;;8.85;76.72;103094.06;5031580;28;20033;-85
2022/03/27 00:31:22;;;;;;;11.65;6.50;;;;;;;8.92;76.96;103108.81;5027394;28;20022;-84
2022/03/27 00:33:50;;;;;;;9.75;6.43;;;;;;;8.85;77.06;103102.00;5010739;28;20026;-85
2022/03/27 00:36:16;;;;;;;9.07;6.13;;;;;;;8.85;76.80;103100.22;5012352;28;20030;-85
2022/03/27 00:38:45;;;;;;;8.68;6.05;;;;;;;8.85;76.82;103102.00;5010491;28;20022;-85
2022/03/27 00:41:17;;;;;;;;;;;;;;;8.92;73.20;103102.66;5015216;28;20029;-85
2022/03/27 00:43:43;;;;;;;8.57;5.75;;;;;;;8.74;76.39;103094.38;5026931;28;19920;-84
2022/03/27 00:46:09;;;;;;;9.52;6.50;;;;;;;8.74;76.79;103104.13;5009904;28;20034;-85
2022/03/27 00:48:34;;;;;;;9.40;5.88;;;;;;;8.77;77.69;103099.59;5010844;28;20030;-84
2022/03/27 00:51:00;;;;;;;8.45;5.90;;;;;;;8.72;77.37;103095.38;5015502;28;20033;-85
2022/03/27 00:53:28;;;;;;;8.38;5.80;;;;;;;8.72;77.54;103106.81;5024703;28;20179;-86
2022/03/27 00:55:54;;;;;;;7.20;6.30;;;;;;;8.62;77.46;103089.50;5017177;28;20026;-84
2022/03/27 00:58:19;;;;;;;9.70;5.90;;;;;;;8.65;77.89;103100.00;5024937;28;20062;-84
2022/03/27 01:01:12;;;;;;;9.55;6.25;;;;;;;8.62;76.94;103086.84;5017154;28;20163;-85
2022/03/27 01:03:37;;;;;;;9.85;5.90;;;;;;;8.63;77.48;103099.19;5012061;28;20503;-85
2022/03/27 01:06:03;;;;;;;10.38;6.38;;;;;;;8.59;78.16;103092.25;5013366;28;20038;-85
2022/03/27 01:11:17;;;;;;;9.68;6.40;;;;;;;8.59;78.03;103098.41;5012326;28;20061;-85
2022/03/27 01:13:49;;;;;;;10.07;6.18;;;;;;;8.55;78.14;103090.63;5008749;28;20026;-86
2022/03/27 01:16:46;;;;;;;8.63;6.40;;;;;;;8.54;77.11;103091.53;5011104;28;20022;-85
2022/03/27 01:19:16;;;;;;;9.63;6.25;;;;;;;8.46;78.06;103091.75;5010234;28;20030;-85
2022/03/27 01:21:46;;;;;;;11.82;7.25;;;;;;;8.40;78.41;103086.66;5015758;28;20037;-85
2022/03/27 01:24:15;;;;;;;10.18;6.55;;;;;;;8.39;78.44;103092.84;5013100;28;20479;-86
2022/03/27 01:26:44;;;;;;;10.27;6.93;;;;;;;8.37;79.07;103089.38;5040570;28;20133;-85
2022/03/27 01:29:09;;;;;;;;;;;;;;;8.47;75.24;103098.78;5030471;28;20040;-86
2022/03/27 01:31:35;;;;;;;12.52;7.35;;;;;;;8.33;77.83;103097.41;5027074;28;20209;-85
2022/03/27 01:34:04;;;;;;;11.02;7.00;;;;;;;8.28;77.88;103088.75;5011864;28;20385;-85
2022/03/27 01:36:35;;;;;;;9.50;8.32;;;;;;;8.26;78.34;103087.06;5010302;28;20033;-85
2022/03/27 01:39:12;;;;;;;14.00;8.50;;;;;;;8.18;78.82;103084.66;5025853;28;20026;-85
2022/03/27 01:41:38;;;;;;;10.70;7.43;;;;;;;8.07;78.75;103074.38;5026439;28;20041;-86
2022/03/27 01:44:25;;;;;;;14.73;8.00;;;;;;;8.13;78.33;103086.59;5011666;28;20114;-85
2022/03/27 01:46:50;;;;;;;9.43;6.93;;;;;;;8.13;78.46;103089.22;5010663;28;20026;-84
2022/03/27 01:49:18;;;;;;;10.05;6.82;;;;;;;8.09;78.59;103088.47;5011722;28;20362;-85
2022/03/27 01:51:43;;;;;;;10.85;7.07;;;;;;;8.05;78.78;103078.88;5018365;28;20036;-85
2022/03/27 01:54:10;;;;;;;8.40;7.07;;;;;;;8.05;78.59;103081.50;5030023;28;20018;-85
2022/03/27 01:56:38;;;;;;;11.20;7.50;;;;;;;7.95;78.67;103085.34;5032237;28;20104;-86
2022/03/27 01:59:04;;;;;;;12.70;7.55;;;;;;;7.99;79.00;103096.69;5034590;28;20049;-85
2022/03/27 02:01:30;;;;;;;9.23;6.97;;;;;;;7.91;78.89;103088.97;5021930;28;20038;-85
2022/03/27 02:03:55;;;;;;;9.52;7.10;;;;;;;7.91;78.74;103094.28;5014491;28;20061;-86
2022/03/27 02:06:21;;;;;;;9.98;7.30;;;;;;;7.85;78.28;103084.75;5029695;28;20079;-85
2022/03/27 02:08:47;;;;;;;10.60;6.82;;;;;;;7.75;79.07;103078.00;5014412;28;20472;-85
2022/03/27 02:11:15;;;;;;;8.60;6.60;;;;;;;7.72;78.95;103083.38;5014365;28;20030;-84
2022/03/27 02:13:46;;;;;;;10.18;7.20;;;;;;;7.72;78.71;103084.22;5014151;28;20058;-84
2022/03/27 02:16:12;;;;;;;9.20;7.35;;;;;;;7.72;78.61;103093.94;5028771;28;20061;-84
2022/03/27 02:18:37;;;;;;;12.15;8.05;;;;;;;7.64;79.41;103082.72;5013776;28;20440;-84
2022/03/27 02:21:03;;;;;;;14.48;7.38;;;;;;;7.65;79.39;103089.75;5013015;28;20022;-84
2022/03/27 02:23:31;;;;;;;14.98;9.25;;;;;;;7.58;80.23;103081.97;5012534;28;20125;-85
2022/03/27 02:25:57;;;;;;;13.15;8.60;;;;;;;7.58;80.37;103081.97;5013437;28;20050;-85
2022/03/27 02:28:26;;;;;;;14.50;9.07;;;;;;;7.59;80.36;103089.00;5013228;28;20112;-85
2022/03/27 02:30:52;;;;;;;11.07;8.18;;;;;;;7.52;79.87;103076.00;5012791;28;20017;-84
2022/03/27 02:33:17;;;;;;;12.25;8.45;;;;;;;7.52;80.58;103076.00;5013858;28;20698;-84
2022/03/27 02:35:43;;;;;;;11.77;8.30;;;;;;;7.55;80.94;103090.00;5029216;28;20022;-85
2022/03/27 02:38:10;;;;;;;12.40;9.07;;;;;;;7.47;81.26;103084.03;5013773;28;20125;-86
2022/03/27 02:40:36;;;;;;;14.10;9.15;;;;;;;7.48;81.58;103087.59;5012188;28;20149;-85
2022/03/27 02:43:02;;;;;;;14.43;9.95;;;;;;;7.38;82.31;103082.53;5013876;28;20362;-85
2022/03/27 02:45:29;;;;;;;15.85;11.20;;;;;;;7.36;83.28;103076.44;5028846;28;20025;-85
2022/03/27 02:47:55;;;;;;;16.25;12.50;;;;;;;7.41;84.85;103093.03;5028424;28;20038;-85
2022/03/27 02:50:26;;;;;;;19.63;13.70;;;;;;;7.45;85.63;103096.44;5030971;28;20116;-85
2022/03/27 02:52:53;;;;;;;21.40;14.52;;;;;;;7.43;86.14;103076.22;5032570;28;20048;-85
2022/03/27 02:55:20;;;;;;;22.17;15.00;;;;;;;7.43;85.96;103077.13;5033604;28;20522;-86
2022/03/27 02:57:47;;;;;;;17.38;14.35;;;;;;;7.44;86.79;103075.34;5031814;28;20025;-86
2022/03/27 03:00:13;;;;;;;18.92;14.70;;;;;;;7.45;86.73;103074.44;5033945;28;20040;-85
2022/03/27 03:02:38;;;;;;;20.92;16.35;;;;;;;7.52;87.39;103079.50;5031937;28;20029;-85
2022/03/27 03:05:04;;;;;;;20.40;16.15;;;;;;;7.47;87.27;103065.53;5033203;28;20402;-85
2022/03/27 03:07:30;;;;;;;23.55;16.55;;;;;;;7.52;87.51;103081.28;5014190;28;20481;-86
2022/03/27 03:09:56;;;;;;;19.92;16.58;;;;;;;7.46;87.68;103066.47;5031099;28;20037;-85
2022/03/27 03:12:24;;;;;;;20.70;16.95;;;;;;;7.49;87.72;103071.66;5033344;28;20033;-85
2022/03/27 03:14:55;;;;;;;22.85;17.10;;;;;;;7.48;87.71;103069.06;5031455;28;20033;-85
2022/03/27 03:17:20;;;;;;;21.35;16.70;;;;;;;7.53;87.91;103068.03;5031712;28;20176;-86
2022/03/27 03:19:46;;;;;;;20.02;15.85;;;;;;;7.54;87.69;103068.88;5031443;28;20130;-86
2022/03/27 03:22:17;;;;;;;20.83;16.73;;;;;;;7.56;87.89;103067.94;5031863;28;20033;-86
2022/03/27 03:24:42;;;;;;;18.70;15.40;;;;;;;7.66;87.67;103080.88;5028010;28;20061;-85
2022/03/27 03:27:10;;;;;;;19.85;16.58;;;;;;;7.64;88.22;103075.63;5032721;28;20073;-86
2022/03/27 03:29:36;;;;;;;24.90;17.92;;;;;;;7.60;88.66;103080.16;5036158;28;20489;-85
2022/03/27 03:32:02;;;;;;;20.83;16.65;;;;;;;7.59;88.33;103059.03;5034066;28;20029;-85
2022/03/27 03:34:27;;;;;;;19.30;15.82;;;;;;;7.64;88.19;103064.19;5018323;28;20054;-85
2022/03/27 03:36:52;;;;;;;20.73;16.30;;;;;;;7.66;87.79;103055.31;5012299;28;20477;-85
2022/03/27 03:39:18;;;;;;;20.35;17.33;;;;;;;7.74;87.53;103069.19;5013251;28;20029;-85
2022/03/27 03:41:45;;;;;;;22.02;16.73;;;;;;;7.69;87.86;103062.28;5013698;28;20088;-86
2022/03/27 03:44:13;;;;;;;20.77;16.38;;;;;;;7.67;88.16;103059.69;5013020;28;20117;-85
2022/03/27 03:46:39;;;;;;;21.50;16.75;;;;;;;7.65;88.45;103053.56;5017455;28;20100;-85
2022/03/27 03:49:07;;;;;;;22.67;17.55;;;;;;;7.71;88.13;103068.41;5028552;28;20026;-86
2022/03/27 03:51:34;;;;;;;22.13;16.77;;;;;;;7.66;88.23;103060.63;5013137;28;21904;-84
2022/03/27 03:54:01;;;;;;;21.17;17.52;;;;;;;7.66;87.81;103051.78;5013341;28;20037;-84
2022/03/27 03:56:29;;;;;;;21.40;17.35;;;;;;;7.70;87.88;103056.09;5024790;28;20033;-85
2022/03/27 03:58:54;;;;;;;21.17;17.63;;;;;;;7.74;88.20;103057.72;5032864;28;20113;-85
2022/03/27 04:01:19;;;;;;;22.80;17.52;;;;;;;7.79;88.24;103071.69;5034232;28;20480;-85
2022/03/27 04:03:45;;;;;;;21.08;17.33;;;;;;;7.76;87.98;103067.38;5046804;28;20017;-85
2022/03/27 04:06:10;;;;;;;21.50;17.52;;;;;;;7.77;88.01;103070.88;5055142;28;20040;-86
2022/03/27 04:08:36;;;;;;;21.27;17.15;;;;;;;7.75;88.09;103067.41;5033994;28;20186;-86
2022/03/27 04:11:02;;;;;;;22.42;17.83;;;;;;;7.81;88.51;103080.47;5042048;28;20060;-83
2022/03/27 04:13:27;;;;;;;21.38;17.70;;;;;;;7.77;88.25;103071.72;5031007;28;20104;-85
2022/03/27 04:15:52;;;;;;;24.23;17.85;;;;;;;7.84;87.88;103077.72;5032066;28;20373;-85
2022/03/27 04:18:18;;;;;;;21.20;18.05;;;;;;;7.78;88.07;103069.97;5030117;28;20025;-85
2022/03/27 04:20:43;;;;;;;21.85;18.70;;;;;;;7.79;88.02;103066.41;5012263;28;20038;-86
2022/03/27 04:23:09;;;;;;;21.40;18.58;;;;;;;7.80;88.65;103069.94;5024689;28;20032;-87
2022/03/27 04:25:38;;;;;;;21.25;18.15;;;;;;;7.81;88.51;103069.00;5028722;28;20126;-86
2022/03/27 04:28:06;;;;;;;22.08;19.17;;;;;;;7.83;88.37;103067.16;5011178;28;20030;-85
2022/03/27 04:30:32;;;;;;;24.20;17.85;;;;;;;7.78;87.72;103048.81;5011101;28;20048;-85
2022/03/27 04:32:58;;;;;;;21.92;18.30;;;;;;;7.87;88.11;103068.81;5012572;28;20022;-87
2022/03/27 04:35:24;;;;;;;22.10;18.38;;;;;;;7.87;88.27;103069.69;5013401;28;20111;-86
2022/03/27 04:37:49;;;;;;;21.83;18.73;;;;;;;7.84;87.97;103067.13;5024242;28;20354;-85
2022/03/27 04:40:18;;;;;;;19.40;16.02;;;;;;;7.86;87.86;103059.16;5033378;28;20030;-85
2022/03/27 04:42:44;;;;;;;;;;;;;;;7.97;85.35;103072.94;5033302;28;20037;-86
2022/03/27 04:45:11;;;;;;;21.10;17.00;;;;;;;7.78;88.00;103056.75;5027082;28;19914;-85
2022/03/27 04:47:36;;;;;;;19.60;17.48;;;;;;;7.82;87.92;103071.59;5011878;28;20054;-86
2022/03/27 04:50:05;;;;;;;21.63;18.13;;;;;;;7.81;88.20;103064.59;5012248;28;20105;-85
2022/03/27 04:52:30;;;;;;;21.23;17.98;;;;;;;7.85;88.45;103075.94;5012286;28;20034;-86
2022/03/27 04:54:56;;;;;;;22.75;18.00;;;;;;;7.82;88.16;103071.59;5027719;28;20488;-85
2022/03/27 04:57:21;;;;;;;21.73;18.42;;;;;;;7.84;88.67;103072.41;5012457;28;20204;-85
2022/03/27 04:59:47;;;;;;;23.10;18.52;;;;;;;7.76;88.85;103067.38;5014351;28;20554;-86
2022/03/27 05:02:12;;;;;;;24.60;19.00;;;;;;;7.78;89.02;103078.75;5020605;28;20029;-85
2022/03/27 05:04:40;;;;;;;22.98;19.75;;;;;;;7.76;89.05;103080.59;5012424;28;20106;-86
2022/03/27 05:07:05;;;;;;;22.65;18.95;;;;;;;7.73;88.86;103083.31;5011078;28;20384;-85
2022/03/27 05:09:31;;;;;;;23.00;18.98;;;;;;;7.66;89.19;103076.47;5012676;28;20036;-85
2022/03/27 05:11:56;;;;;;;24.88;19.05;;;;;;;7.71;88.99;103086.91;5010753;28;20048;-85
2022/03/27 05:14:24;;;;;;;22.50;19.55;;;;;;;7.63;89.14;103075.69;5012297;28;20053;-86
2022/03/27 05:16:49;;;;;;;26.40;20.77;;;;;;;7.65;89.29;103082.66;5013142;28;20082;-86
2022/03/27 05:19:17;;;;;;;24.20;19.90;;;;;;;7.68;89.29;103087.88;5017144;28;20475;-84
2022/03/27 05:21:43;;;;;;;26.48;19.63;;;;;;;7.63;89.68;103081.84;5027292;28;20038;-84
2022/03/27 05:24:09;;;;;;;25.00;19.58;;;;;;;7.67;89.45;103086.13;5032338;28;20033;-86
2022/03/27 05:26:38;;;;;;;22.40;20.00;;;;;;;7.73;89.34;103095.69;5032193;28;20046;-85
2022/03/27 05:29:06;;;;;;;;;;;;;;;7.82;86.80;103103.34;5032320;28;20033;-84
2022/03/27 05:31:32;;;;;;;23.38;20.50;;;;;;;7.69;88.63;103079.00;5031924;28;19909;-85
2022/03/27 05:33:58;;;;;;;23.77;20.98;;;;;;;7.66;88.71;103084.41;5021999;28;20037;-85
2022/03/27 05:36:24;;;;;;;26.15;21.55;;;;;;;7.66;89.49;103089.72;5014574;28;20112;-85
2022/03/27 05:38:50;;;;;;;26.80;21.52;;;;;;;7.64;89.39;103080.94;5015366;28;20034;-85
2022/03/27 05:41:15;;;;;;;28.23;22.35;;;;;;;7.74;89.29;103105.34;5015902;28;20091;-85
2022/03/27 05:43:43;;;;;;;28.17;22.13;;;;;;;7.69;89.78;103102.81;5016128;28;20057;-85
2022/03/27 05:46:09;;;;;;;28.17;23.27;;;;;;;7.70;89.69;103107.22;5016285;28;20042;-85
2022/03/27 05:48:34;;;;;;;27.00;22.63;;;;;;;7.71;89.58;103097.50;5016553;28;20037;-85
2022/03/27 05:51:02;;;;;;;36.80;24.05;;;;;;;7.69;89.91;103102.81;5017020;28;20021;-85
2022/03/27 05:53:30;;;;;;;25.80;21.23;;;;;;;7.64;89.53;103086.22;5028693;28;20021;-86
2022/03/27 05:55:57;;;;;;;29.05;22.08;;;;;;;7.59;89.55;103078.44;5038821;28;20037;-86
2022/03/27 05:58:23;;;;;;;31.98;23.13;;;;;;;7.54;89.63;103083.00;5039444;28;20037;-87
2022/03/27 06:00:49;;;;;;;25.95;22.65;;;;;;;7.58;89.84;103102.28;5036521;28;20033;-86
2022/03/27 06:03:15;;;;;;;29.65;21.50;;;;;;;7.52;89.51;103095.38;5038113;28;20488;-86
2022/03/27 06:05:44;;;;;;;24.73;19.60;;;;;;;7.57;89.07;103111.97;5038740;28;20033;-86
2022/03/27 06:08:09;;;;;;;23.25;20.08;;;;;;;7.55;88.64;103116.44;5040309;28;20087;-86
2022/03/27 06:10:39;;;;;;;25.67;20.35;;;;;;;7.53;88.79;103115.63;5048105;28;20037;-87
2022/03/27 06:13:04;;;;;;;;;;;;;;;7.68;86.98;103129.34;5034603;28;20022;-87
2022/03/27 06:15:31;;;;;;;21.27;17.67;;;;;;;7.53;88.33;103118.25;5030876;28;19937;-87
2022/03/27 06:17:57;;;;;;;23.25;18.50;;;;;;;7.52;88.45;103121.81;5020919;28;20058;-87
2022/03/27 06:20:27;;;;;;;24.63;18.35;;;;;;;7.47;88.41;103110.50;5021051;28;20028;-85
2022/03/27 06:22:55;;;;;;;21.95;17.85;;;;;;;7.49;88.23;103118.38;5036126;28;20026;-85
2022/03/27 06:25:25;;;;;;;23.95;18.25;;;;;;;7.45;88.47;103119.38;5035936;28;20061;-86
2022/03/27 06:27:51;;;;;;;29.63;18.38;;;;;;;7.37;88.68;103114.28;5035205;28;20080;-86
2022/03/27 06:30:20;;;;;;;23.23;17.30;;;;;;;7.45;88.82;103130.81;5033758;28;20037;-85
2022/03/27 06:32:48;;;;;;;23.70;17.20;;;;;;;7.36;88.26;103123.13;5034905;28;20064;-86
2022/03/27 06:35:15;;;;;;;27.85;19.48;;;;;;;7.30;88.52;103115.38;5034801;28;20373;-86
2022/03/27 06:37:44;;;;;;;28.92;19.23;;;;;;;7.32;88.81;103134.69;5035128;28;20448;-85
2022/03/27 06:40:10;;;;;;;28.50;19.60;;;;;;;7.38;88.75;103142.47;5039952;28;20505;-85
2022/03/27 06:42:36;;;;;;;27.38;18.83;;;;;;;7.33;89.02;103126.72;5056813;28;20028;-85
2022/03/27 06:45:03;;;;;;;30.00;21.50;;;;;;;7.42;88.80;103141.47;5033977;28;20080;-86
2022/03/27 06:47:32;;;;;;;29.45;20.95;;;;;;;7.43;88.78;103142.34;5034757;28;20184;-86
2022/03/27 06:49:58;;;;;;;32.28;22.67;;;;;;;7.33;88.84;103120.59;5035455;28;20049;-86
2022/03/27 06:52:26;;;;;;;30.90;21.23;;;;;;;7.45;88.86;103135.25;5035282;28;20388;-85
2022/03/27 06:54:52;;;;;;;31.90;22.00;;;;;;;7.45;89.12;103140.53;5036315;28;20133;-85
2022/03/27 06:57:17;;;;;;;30.20;21.05;;;;;;;7.46;88.85;103136.97;5016363;28;20056;-85
2022/03/27 07:05:13;;;;;;;33.05;22.98;;;;;;;7.52;89.05;103140.31;5034083;28;20098;-86
2022/03/27 07:07:38;;;;;;;33.10;22.45;;;;;;;7.52;89.02;103140.31;5032576;28;20113;-84
2022/03/27 07:10:04;;;;;;;33.00;22.05;;;;;;;7.53;88.96;103142.06;5031569;28;20033;-85
2022/03/27 07:12:29;;;;;;;32.22;21.25;;;;;;;7.55;88.81;103140.25;5018838;28;20029;-86
2022/03/27 07:14:55;;;;;;;30.92;21.65;;;;;;;7.59;88.75;103147.19;5029823;28;20066;-86
2022/03/27 07:17:21;;;;;;;30.00;21.23;;;;;;;7.59;88.46;103144.56;5014645;28;20022;-87
2022/03/27 07:19:47;;;;;;;32.95;22.25;;;;;;;7.58;88.39;103134.00;5012774;28;20091;-86
2022/03/27 07:22:14;;;;;;;35.33;23.48;;;;;;;7.57;88.67;103137.56;5032000;28;20063;-85
2022/03/27 07:24:43;;;;;;;31.73;22.13;;;;;;;7.55;88.57;103134.09;5031641;28;20481;-87
2022/03/27 07:27:08;;;;;;;32.80;22.73;;;;;;;7.59;88.41;103130.44;5032786;28;20568;-86
2022/03/27 07:29:35;;;;;;;35.13;24.33;;;;;;;7.53;88.54;103120.91;5021841;28;20120;-87
2022/03/27 07:32:02;;;;;;;34.17;22.92;;;;;;;7.61;88.90;103136.59;5015463;28;20048;-87
2022/03/27 07:34:27;;;;;;;36.55;23.98;;;;;;;7.62;88.92;103143.59;5022289;28;20043;-87
2022/03/27 07:36:52;;;;;;;38.53;25.48;;;;;;;7.65;88.92;103145.28;5022566;28;20021;-87
2022/03/27 07:39:18;;;;;;;36.17;24.85;;;;;;;7.65;88.89;103146.16;5022768;28;20460;-86
2022/03/27 07:41:43;;;;;;;39.72;25.65;;;;;;;7.71;88.95;103139.81;5015900;28;20080;-85
2022/03/27 07:44:08;;;;;;;53.65;26.05;;;;;;;7.68;88.96;103146.06;5014780;28;20100;-85
2022/03/27 07:46:33;;;;;;;40.03;26.35;;;;;;;7.68;88.80;103142.56;5019437;28;20037;-87
2022/03/27 07:48:59;;;;;;;42.83;27.17;;;;;;;7.68;88.81;103142.56;5019062;28;20026;-85
2022/03/27 07:51:24;;;;;;;37.05;25.23;;;;;;;7.71;88.69;103137.16;5054201;28;20021;-86
2022/03/27 07:53:51;;;;;;;38.15;25.42;;;;;;;7.74;88.81;103139.72;5075084;22;20065;-67
2022/03/27 07:56:17;;;;;;;36.92;25.52;;;;;;;7.74;88.70;103140.63;5054835;28;20032;-65
2022/03/27 07:58:43;;;;;;;38.55;25.58;;;;;;;7.72;88.87;103138.91;5052476;28;20124;-67
2022/03/27 08:01:09;;;;;;;37.08;23.58;;;;;;;7.73;88.57;103143.31;5067261;28;20175;-66
2022/03/27 08:03:38;;;;;;;36.05;23.60;;;;;;;7.72;88.46;103137.13;5050518;28;20459;-66
2022/03/27 08:06:03;;;;;;;37.58;24.15;;;;;;;7.73;88.30;103141.53;5038175;28;20029;-65
2022/03/27 08:08:28;;;;;;;33.97;24.00;;;;;;;7.72;88.33;103137.13;5046243;28;20029;-65
2022/03/27 08:10:55;;;;;;;36.63;24.10;;;;;;;7.74;88.32;103140.63;5052241;28;20037;-65
2022/03/27 08:13:20;;;;;;;37.08;23.08;;;;;;;7.72;88.27;103134.47;5051559;28;20064;-66
2022/03/27 08:15:45;;;;;;;38.38;23.58;;;;;;;7.68;88.23;103140.78;5050968;28;20061;-66
2022/03/27 08:18:13;;;;;;;35.95;23.92;;;;;;;7.68;88.21;103135.50;5051243;28;20443;-66
2022/03/27 08:20:38;;;;;;;37.80;25.23;;;;;;;7.71;88.53;103134.53;5050265;28;20028;-65
2022/03/27 08:23:04;;;;;;;35.13;23.58;;;;;;;7.77;87.96;103131.72;5055627;28;20359;-66
2022/03/27 08:28:14;;;;;;;35.85;25.02;;;;;;;7.76;87.85;103132.63;5050838;28;20264;-66
2022/03/27 08:30:40;;;;;;;37.28;25.02;;;;;;;7.81;87.84;103138.66;5050292;28;20025;-66
2022/03/27 08:33:05;;;;;;;36.70;24.02;;;;;;;7.84;87.59;103145.63;5042140;28;20120;-65
2022/03/27 08:35:31;;;;;;;37.15;23.90;;;;;;;7.89;87.66;103138.44;5031075;28;20086;-66
2022/03/27 08:37:56;;;;;;;36.25;24.27;;;;;;;7.95;87.12;103144.41;5030871;28;20028;-65
2022/03/27 08:40:21;;;;;;;36.25;24.45;;;;;;;8.00;87.21;103140.78;5031470;28;20033;-65
2022/03/27 08:42:46;;;;;;;35.70;24.35;;;;;;;8.04;87.04;103137.13;5031006;28;20045;-65
2022/03/27 08:45:12;;;;;;;36.65;24.45;;;;;;;8.07;86.65;103142.34;5030675;28;20022;-65
2022/03/27 08:47:39;;;;;;;36.70;24.90;;;;;;;8.09;86.78;103140.50;5046813;28;20099;-66
2022/03/27 08:50:26;;;;;;;35.40;24.13;;;;;;;8.15;86.40;103140.34;5052962;28;20041;-66
2022/03/27 08:52:54;;;;;;;34.83;23.98;;;;;;;8.17;86.27;103138.50;5052231;28;20053;-66
2022/03/27 08:55:27;;;;;;;37.67;25.33;;;;;;;8.15;86.04;103133.25;5047021;28;20029;-66
2022/03/27 08:57:58;;;;;;;34.63;24.00;;;;;;;8.23;85.97;103140.97;5032783;28;20065;-65
2022/03/27 09:00:28;;;;;;;41.80;26.00;;;;;;;8.27;85.79;103137.31;5044891;28;20031;-65
2022/03/27 09:02:54;;;;;;;34.75;24.33;;;;;;;8.29;85.43;103142.56;5051039;28;20032;-65
2022/03/27 09:05:22;;;;;;;36.47;24.42;;;;;;;8.31;85.32;103151.31;5048632;28;20475;-65
2022/03/27 09:07:48;;;;;;;34.55;23.63;;;;;;;8.29;84.94;103156.69;5051217;28;20351;-65
2022/03/27 09:10:14;;;;;;;32.58;24.05;;;;;;;8.28;85.04;103157.59;5053470;28;20178;-65
2022/03/27 09:12:41;;;;;;;32.95;23.75;;;;;;;8.32;84.89;103148.63;5052512;28;20033;-64
2022/03/27 09:15:08;;;;;;;33.45;23.20;;;;;;;8.33;84.46;103155.66;5052950;28;20033;-65
2022/03/27 09:17:57;;;;;;;30.80;22.52;;;;;;;8.39;84.15;103159.91;5052823;28;20609;-65
2022/03/27 09:20:29;;;;;;;29.50;21.42;;;;;;;8.39;84.14;103159.91;5052647;28;20104;-64
2022/03/27 09:22:54;;;;;;;30.08;20.27;;;;;;;8.36;83.25;103164.44;5045807;28;20091;-64
2022/03/27 09:25:20;;;;;;;22.85;17.70;;;;;;;8.34;83.21;103165.38;5043940;28;20049;-64
2022/03/27 09:27:45;;;;;;;22.05;16.20;;;;;;;8.36;82.73;103167.06;5051846;28;20029;-65
2022/03/27 09:30:11;;;;;;;22.52;16.10;;;;;;;8.34;82.61;103165.38;5051204;28;20764;-64
2022/03/27 09:32:41;;;;;;;25.55;18.65;;;;;;;8.31;82.84;103162.81;5044561;28;20059;-64
2022/03/27 09:35:11;;;;;;;26.42;18.83;;;;;;;8.27;83.05;103161.13;5050646;28;20076;-64
2022/03/27 09:37:47;;;;;;;24.08;17.63;;;;;;;8.33;83.14;103165.41;5050511;28;20033;-63
2022/03/27 09:40:15;;;;;;;23.80;17.05;;;;;;;8.32;82.66;103161.88;5052010;28;20025;-65
2022/03/27 09:42:42;;;;;;;20.75;15.48;;;;;;;8.42;82.51;103156.31;5051970;28;20036;-65
2022/03/27 09:45:12;;;;;;;22.02;15.40;;;;;;;8.43;82.12;103153.66;5051200;28;20040;-64
2022/03/27 09:47:38;;;;;;;22.08;16.63;;;;;;;8.46;82.01;103150.03;5049045;28;20479;-65
2022/03/27 09:50:04;;;;;;;22.92;16.90;;;;;;;8.49;82.31;103145.53;5051697;28;20076;-64
2022/03/27 09:52:30;;;;;;;21.15;15.73;;;;;;;8.54;82.11;103147.16;5050991;28;20043;-65
2022/03/27 09:55:03;;;;;;;22.45;16.63;;;;;;;8.58;81.79;103146.16;5051657;28;20057;-64
2022/03/27 09:57:36;;;;;;;25.75;17.83;;;;;;;8.63;81.80;103147.72;5032708;28;20068;-64
2022/03/27 10:00:11;;;;;;;21.80;16.83;;;;;;;8.71;81.69;103134.25;5032223;28;20041;-64
2022/03/27 10:02:37;;;;;;;20.95;15.93;;;;;;;8.78;80.91;103132.28;5048788;28;20101;-64
2022/03/27 10:05:08;;;;;;;24.90;19.83;;;;;;;8.84;81.38;103118.81;5052235;28;20082;-64
2022/03/27 10:07:41;;;;;;;24.00;17.98;;;;;;;8.92;81.27;103122.06;5043060;28;20052;-64
2022/03/27 10:10:15;;;;;;;27.55;19.92;;;;;;;8.99;80.83;103117.44;5047204;28;20025;-64
2022/03/27 10:12:43;;;;;;;27.08;18.95;;;;;;;9.06;80.79;103113.69;5050595;28;20032;-64
2022/03/27 10:15:12;;;;;;;24.40;18.67;;;;;;;9.11;80.54;103110.84;5051537;28;20037;-64
2022/03/27 10:17:39;;;;;;;27.83;20.65;;;;;;;9.17;80.14;103111.50;5052248;28;20021;-63
2022/03/27 10:20:16;;;;;;;29.52;18.98;;;;;;;9.25;80.05;103111.25;5051965;28;20166;-64
2022/03/27 10:22:45;;;;;;;27.30;20.10;;;;;;;9.28;79.73;103113.81;5051874;28;20043;-63
2022/03/27 10:25:15;;;;;;;25.85;20.50;;;;;;;9.39;80.29;103108.09;5051740;28;20470;-63
2022/03/27 10:27:44;;;;;;;27.17;19.73;;;;;;;9.53;79.78;103107.63;5051000;28;20057;-64
2022/03/27 10:30:11;;;;;;;25.55;20.00;;;;;;;9.64;79.09;103110.75;5050960;28;20096;-63
2022/03/27 10:32:38;;;;;;;26.83;20.55;;;;;;;9.69;78.42;103108.81;5050762;28;20592;-63
2022/03/27 10:35:37;;;;;;;24.20;17.98;;;;;;;9.81;77.81;103107.50;5049028;28;20107;-63
2022/03/27 10:38:40;;;;;;;23.95;18.70;;;;;;;10.02;77.93;103100.50;5049678;28;20041;-64
2022/03/27 10:41:11;;;;;;;24.00;17.65;;;;;;;10.18;76.21;103104.28;5046987;28;20049;-64
2022/03/27 10:43:50;;;;;;;23.80;17.23;;;;;;;10.24;75.60;103100.56;5048565;28;20294;-64
2022/03/27 10:46:21;;;;;;;22.13;17.17;;;;;;;10.36;75.16;103096.59;5051091;28;20032;-63
2022/03/27 10:48:48;;;;;;;26.20;20.55;;;;;;;10.50;74.83;103094.22;5050065;28;20033;-66
2022/03/27 10:51:25;;;;;;;23.38;18.33;;;;;;;10.86;74.55;103092.78;5053495;28;20044;-65
2022/03/27 10:54:19;;;;;;;25.50;18.38;;;;;;;11.20;74.26;103091.34;5053010;28;20051;-66
2022/03/27 10:56:48;;;;;;;22.35;18.02;;;;;;;11.47;72.33;103089.25;5044614;28;20194;-67
2022/03/27 10:59:24;;;;;;;23.70;17.90;;;;;;;11.71;71.58;103081.09;5050022;28;20450;-66
2022/03/27 11:01:52;;;;;;;23.63;18.00;;;;;;;12.10;70.56;103077.56;5034974;28;20116;-67
2022/03/27 11:04:21;;;;;;;22.08;17.50;;;;;;;12.56;69.43;103070.03;5052901;28;20033;-65
2022/03/27 11:06:48;;;;;;;21.98;17.08;;;;;;;13.03;67.92;103068.56;5051248;28;20033;-66
2022/03/27 11:09:34;;;;;;;22.70;17.95;;;;;;;13.37;68.62;103074.84;5048694;28;20167;-66
2022/03/27 11:12:02;;;;;;;23.40;17.77;;;;;;;13.67;65.67;103070.53;5050590;28;20035;-66
2022/03/27 11:14:53;;;;;;;22.08;17.33;;;;;;;13.97;66.06;103058.22;5051989;28;20029;-66
2022/03/27 11:17:45;;;;;;;21.25;17.50;;;;;;;14.29;65.00;103059.09;5051949;28;20068;-66
2022/03/27 11:20:16;;;;;;;19.80;16.20;;;;;;;14.39;61.60;103067.47;5050658;28;20021;-66
2022/03/27 11:22:52;;;;;;;21.80;16.30;;;;;;;14.51;61.38;103053.38;5050222;28;20060;-66
2022/03/27 11:25:28;;;;;;;19.65;17.30;;;;;;;14.69;62.05;103055.94;5047365;28;20527;-66
2022/03/27 11:28:03;;;;;;;20.15;16.65;;;;;;;14.95;59.88;103055.28;5046791;28;20036;-66
2022/03/27 11:30:37;;;;;;;20.00;17.15;;;;;;;15.09;59.43;103045.56;5050722;28;20385;-66
2022/03/27 11:33:12;;;;;;;19.35;16.00;;;;;;;15.51;59.64;103042.03;5051217;28;20098;-65
2022/03/27 11:35:40;;;;;;;20.15;16.48;;;;;;;15.83;56.77;103035.63;5035821;28;20025;-65